Home > Products > Valid Products > TAF

000
FTUS43 KLBF 271739
TAFVTN
TAF
KVTN 271739Z 2718/2818 09010KT P6SM SCT009 BKN070
     FM271900 23012G19KT P6SM SCT070 BKN200
     FM272200 31012G19KT P6SM BKN120
      TEMPO 2723/2803 2SM +TSRA BKN070CB
     FM280300 31014KT P6SM SCT070 BKN200
     FM280600 32008KT P6SM BKN200=



000
FTUS43 KLBF 271739
TAFLBF
TAF
KLBF 271739Z 2718/2818 19016G25KT P6SM SCT090 BKN150
     FM272100 29014KT P6SM VCTS SCT070CB OVC120
     FM280000 32010KT P6SM SCT080 BKN150
     FM280300 31014KT P6SM BKN100=



000
FTUS43 KLBF 271739
TAFLBF
TAF
KLBF 271739Z 2718/2818 19016G25KT P6SM SCT090 BKN150
     FM272100 29014KT P6SM VCTS SCT070CB OVC120
     FM280000 32010KT P6SM SCT080 BKN150
     FM280300 31014KT P6SM BKN100=



000
FTUS43 KLBF 271739
TAFVTN
TAF
KVTN 271739Z 2718/2818 09010KT P6SM SCT009 BKN070
     FM271900 23012G19KT P6SM SCT070 BKN200
     FM272200 31012G19KT P6SM BKN120
      TEMPO 2723/2803 2SM +TSRA BKN070CB
     FM280300 31014KT P6SM SCT070 BKN200
     FM280600 32008KT P6SM BKN200=



000
FTUS43 KLBF 271608 AAC
TAFVTN
TAF AMD
KVTN 271608Z 2716/2812 09010KT P6SM OVC007
      TEMPO 2717/2719 SCT007 BKN070
     FM271900 23012G19KT P6SM SCT100 BKN200
     FM272200 31012G19KT P6SM BKN120
      TEMPO 2723/2803 2SM +TSRA BKN070CB
     FM280300 31014G24KT P6SM SCT070 BKN200=



000
FTUS43 KLBF 271309 AAB
TAFVTN
TAF AMD
KVTN 271309Z 2713/2812 11007KT P6SM OVC007
      TEMPO 2713/2716 SCT007 BKN050
     FM271600 20008KT P6SM SCT007 BKN070
     FM271900 23012G19KT P6SM SCT100 BKN200
     FM272200 31012G19KT P6SM BKN120
      TEMPO 2723/2803 2SM +TSRA BKN070CB
     FM280300 31014G24KT P6SM SCT070 BKN200=



000
FTUS43 KLBF 271309 AAB
TAFVTN
TAF AMD
KVTN 271309Z 2713/2812 11007KT P6SM OVC007
      TEMPO 2713/2716 SCT007 BKN050
     FM271600 20008KT P6SM SCT007 BKN070
     FM271900 23012G19KT P6SM SCT100 BKN200
     FM272200 31012G19KT P6SM BKN120
      TEMPO 2723/2803 2SM +TSRA BKN070CB
     FM280300 31014G24KT P6SM SCT070 BKN200=



000
FTUS43 KLBF 271257 AAA
TAFVTN
TAF AMD
KVTN 271257Z 2713/2812 11007KT P6SM OVC007
      TEMPO 2713/2716 SCT007 BKN050
     FM271900 23012G19KT P6SM SCT100 BKN200
     FM272200 31012G19KT P6SM BKN120
      TEMPO 2723/2803 2SM +TSRA BKN070CB
     FM280300 31014G24KT P6SM SCT070 BKN200=



000
FTUS43 KLBF 271257 AAA
TAFVTN
TAF AMD
KVTN 271257Z 2713/2812 11007KT P6SM OVC007
      TEMPO 2713/2716 SCT007 BKN050
     FM271900 23012G19KT P6SM SCT100 BKN200
     FM272200 31012G19KT P6SM BKN120
      TEMPO 2723/2803 2SM +TSRA BKN070CB
     FM280300 31014G24KT P6SM SCT070 BKN200=



000
FTUS43 KLBF 271120
TAFLBF
TAF
KLBF 271120Z 2712/2812 11007KT P6SM BKN200
     FM271900 19016G25KT P6SM SCT090 BKN150
     FM272100 29014KT P6SM VCTS SCT070CB OVC120
     FM280000 32010KT P6SM SCT080 BKN150
     FM280300 31014KT P6SM BKN100=



000
FTUS43 KLBF 271120
TAFVTN
TAF
KVTN 271120Z 2712/2812 11012KT P6SM BKN200
     FM271900 23012G19KT P6SM SCT100 BKN200
     FM272200 31012G19KT P6SM BKN120
      TEMPO 2723/2803 2SM +TSRA BKN070CB
     FM280300 31014G24KT P6SM SCT070 BKN200=



000
FTUS43 KLBF 271120
TAFLBF
TAF
KLBF 271120Z 2712/2812 11007KT P6SM BKN200
     FM271900 19016G25KT P6SM SCT090 BKN150
     FM272100 29014KT P6SM VCTS SCT070CB OVC120
     FM280000 32010KT P6SM SCT080 BKN150
     FM280300 31014KT P6SM BKN100=



000
FTUS43 KLBF 271120
TAFVTN
TAF
KVTN 271120Z 2712/2812 11012KT P6SM BKN200
     FM271900 23012G19KT P6SM SCT100 BKN200
     FM272200 31012G19KT P6SM BKN120
      TEMPO 2723/2803 2SM +TSRA BKN070CB
     FM280300 31014G24KT P6SM SCT070 BKN200=



000
FTUS43 KLBF 271037 AAA
TAFVTN
TAF AMD
KVTN 271037Z 2711/2806 10013KT P6SM BKN200
     FM272000 03012KT P6SM SCT100 BKN200
      TEMPO 2722/2802 5SM -TSRA BKN070CB
     FM280200 34009KT P6SM SCT030 BKN050=



000
FTUS43 KLBF 270520
TAFVTN
TAF
KVTN 270520Z 2706/2806 14011KT P6SM BKN200
     FM272000 03012KT P6SM SCT100 BKN200
      TEMPO 2722/2802 5SM -TSRA BKN070CB
     FM280200 34009KT P6SM SCT030 BKN050=



000
FTUS43 KLBF 270520
TAFLBF
TAF
KLBF 270520Z 2706/2806 13010KT P6SM BKN250
     FM271200 18007KT P6SM FEW090 BKN200
     FM272000 21010KT P6SM SCT090 BKN150
      TEMPO 2721/2724 5SM -TSRA BKN080CB
     FM280000 32010KT P6SM SCT080 BKN150=



000
FTUS43 KLBF 270520
TAFVTN
TAF
KVTN 270520Z 2706/2806 14011KT P6SM BKN200
     FM272000 03012KT P6SM SCT100 BKN200
      TEMPO 2722/2802 5SM -TSRA BKN070CB
     FM280200 34009KT P6SM SCT030 BKN050=



000
FTUS43 KLBF 270520
TAFLBF
TAF
KLBF 270520Z 2706/2806 13010KT P6SM BKN250
     FM271200 18007KT P6SM FEW090 BKN200
     FM272000 21010KT P6SM SCT090 BKN150
      TEMPO 2721/2724 5SM -TSRA BKN080CB
     FM280000 32010KT P6SM SCT080 BKN150=



000
FTUS43 KLBF 262320
TAFLBF
TAF
KLBF 262320Z 2700/2724 14010KT P6SM SCT250
     FM271200 18007KT P6SM FEW090 BKN200
     FM272000 21010KT P6SM SCT090 BKN150
      TEMPO 2721/2724 5SM -TSRA BKN080CB=



000
FTUS43 KLBF 262320
TAFVTN
TAF
KVTN 262320Z 2700/2724 14012KT P6SM SCT200
     FM270800 14009KT P6SM BKN200
     FM272000 03012KT P6SM SCT100 BKN200
      TEMPO 2721/2724 5SM -TSRA BKN080CB=



000
FTUS43 KLBF 261720
TAFVTN
TAF
KVTN 261720Z 2618/2718 16013G19KT P6SM SCT150
     FM270100 14012KT P6SM BKN150
     FM270800 10010KT P6SM BKN150=



000
FTUS43 KLBF 261720
TAFLBF
TAF
KLBF 261720Z 2618/2718 16012G18KT P6SM SKC
     FM270100 14010KT P6SM SCT250
     FM271200 16007KT P6SM BKN150=



000
FTUS43 KLBF 261720
TAFLBF
TAF
KLBF 261720Z 2618/2718 16012G18KT P6SM SKC
     FM270100 14010KT P6SM SCT250
     FM271200 16007KT P6SM BKN150=



000
FTUS43 KLBF 261720
TAFVTN
TAF
KVTN 261720Z 2618/2718 16013G19KT P6SM SCT150
     FM270100 14012KT P6SM BKN150
     FM270800 10010KT P6SM BKN150=



000
FTUS43 KLBF 261134
TAFLBF
TAF
KLBF 261134Z 2612/2712 11006KT P6SM SKC
     FM261500 15008KT P6SM SKC
     FM261800 17013G19KT P6SM SKC
     FM270100 14010KT P6SM SCT250
     FM270600 16011KT P6SM SCT250=



000
FTUS43 KLBF 261134
TAFVTN
TAF
KVTN 261134Z 2612/2712 15006KT P6SM SKC
     FM261600 17013G19KT P6SM SKC
     FM270100 14012KT P6SM BKN150 PROB30 2702/2708 4SM TSRA BKN050CB
     FM270800 12010KT P6SM BKN200=



000
FTUS43 KLBF 261134
TAFLBF
TAF
KLBF 261134Z 2612/2712 11006KT P6SM SKC
     FM261500 15008KT P6SM SKC
     FM261800 17013G19KT P6SM SKC
     FM270100 14010KT P6SM SCT250
     FM270600 16011KT P6SM SCT250=



000
FTUS43 KLBF 261134
TAFVTN
TAF
KVTN 261134Z 2612/2712 15006KT P6SM SKC
     FM261600 17013G19KT P6SM SKC
     FM270100 14012KT P6SM BKN150 PROB30 2702/2708 4SM TSRA BKN050CB
     FM270800 12010KT P6SM BKN200=



000
FTUS43 KLBF 260520
TAFLBF
TAF
KLBF 260520Z 2606/2706 11008KT P6SM FEW250
      TEMPO 2609/2613 3SM BR FEW250
     FM261700 16010KT P6SM SCT250
     FM262000 17013G19KT P6SM SCT250
     FM270000 14010KT P6SM BKN250=



000
FTUS43 KLBF 260520
TAFLBF
TAF
KLBF 260520Z 2606/2706 11008KT P6SM FEW250
      TEMPO 2609/2613 3SM BR FEW250
     FM261700 16010KT P6SM SCT250
     FM262000 17013G19KT P6SM SCT250
     FM270000 14010KT P6SM BKN250=



000
FTUS43 KLBF 260520
TAFVTN
TAF
KVTN 260520Z 2606/2706 12009KT P6SM SKC
     FM261600 16013G19KT P6SM SCT250
     FM270100 13012G18KT P6SM BKN150 PROB30 2702/2706 3SM +TSRA
      OVC030CB=



000
FTUS43 KLBF 260520
TAFVTN
TAF
KVTN 260520Z 2606/2706 12009KT P6SM SKC
     FM261600 16013G19KT P6SM SCT250
     FM270100 13012G18KT P6SM BKN150 PROB30 2702/2706 3SM +TSRA
      OVC030CB=



000
FTUS43 KLBF 252320
TAFVTN
TAF
KVTN 252320Z 2600/2624 11010KT P6SM SKC
     FM260400 14010KT P6SM SCT250
     FM261600 16012G18KT P6SM SCT250=



000
FTUS43 KLBF 252320
TAFLBF
TAF
KLBF 252320Z 2600/2624 13005KT P6SM SKC
      TEMPO 2609/2613 4SM BR SKC
     FM261700 16010KT P6SM FEW250
     FM262000 17012G18KT P6SM FEW250=



000
FTUS43 KLBF 252320
TAFVTN
TAF
KVTN 252320Z 2600/2624 11010KT P6SM SKC
     FM260400 14010KT P6SM SCT250
     FM261600 16012G18KT P6SM SCT250=



000
FTUS43 KLBF 252320
TAFLBF
TAF
KLBF 252320Z 2600/2624 13005KT P6SM SKC
      TEMPO 2609/2613 4SM BR SKC
     FM261700 16010KT P6SM FEW250
     FM262000 17012G18KT P6SM FEW250=



000
FTUS43 KLBF 251722
TAFLBF
TAF
KLBF 251722Z 2518/2618 13010KT P6SM SKC
     FM260100 13004KT P6SM FEW250=



000
FTUS43 KLBF 251722
TAFVTN
TAF
KVTN 251722Z 2518/2618 13011KT P6SM SKC
     FM260400 16007KT P6SM SCT250=



000
FTUS43 KLBF 251722
TAFLBF
TAF
KLBF 251722Z 2518/2618 13010KT P6SM SKC
     FM260100 13004KT P6SM FEW250=



000
FTUS43 KLBF 251722
TAFVTN
TAF
KVTN 251722Z 2518/2618 13011KT P6SM SKC
     FM260400 16007KT P6SM SCT250=



000
FTUS43 KLBF 251128
TAFVTN
TAF
KVTN 251128Z 2512/2612 12005KT P6SM SKC
     FM251600 15011KT P6SM SKC
     FM260500 16008KT P6SM SCT250=



000
FTUS43 KLBF 251128
TAFLBF
TAF
KLBF 251128Z 2512/2612 13006KT P6SM SKC
     FM251700 16010KT P6SM SKC
     FM260100 13005KT P6SM SKC=



000
FTUS43 KLBF 250520
TAFVTN
TAF
KVTN 250520Z 2506/2606 10005KT P6SM SCT250
     FM251600 13009KT P6SM SCT250=



000
FTUS43 KLBF 250520
TAFLBF
TAF
KLBF 250520Z 2506/2606 13004KT P6SM SCT250
     FM251500 14007KT P6SM SCT250=



000
FTUS43 KLBF 250520
TAFVTN
TAF
KVTN 250520Z 2506/2606 10005KT P6SM SCT250
     FM251600 13009KT P6SM SCT250=



000
FTUS43 KLBF 250520
TAFLBF
TAF
KLBF 250520Z 2506/2606 13004KT P6SM SCT250
     FM251500 14007KT P6SM SCT250=



000
FTUS43 KLBF 242320
TAFVTN
TAF
KVTN 242320Z 2500/2524 10007KT P6SM SKC
     FM251600 13009KT P6SM SCT250=



000
FTUS43 KLBF 242320
TAFLBF
TAF
KLBF 242320Z 2500/2524 13004KT P6SM SKC
     FM251500 14007KT P6SM SCT250=



000
FTUS43 KLBF 242320
TAFLBF
TAF
KLBF 242320Z 2500/2524 13004KT P6SM SKC
     FM251500 14007KT P6SM SCT250=



000
FTUS43 KLBF 242320
TAFVTN
TAF
KVTN 242320Z 2500/2524 10007KT P6SM SKC
     FM251600 13009KT P6SM SCT250=



    US Dept of Commerce
    National Oceanic and Atmospheric Administration
    National Weather Service
    1325 East West Highway
    Silver Spring, MD 20910
    Page Author: NWS Internet Services Team
Disclaimer
Information Quality
Credits
Glossary
Privacy Policy
Freedom of Information Act (FOIA)
About Us
Career Opportunities